createdAt,value
2017-08-11T00:00:24.476Z,15.38
2017-08-11T00:01:24.505Z,15.31
2017-08-11T00:02:24.515Z,15.23
2017-08-11T00:03:24.552Z,15.46
2017-08-11T00:04:24.560Z,15.49
2017-08-11T00:05:24.586Z,15.38
2017-08-11T00:06:24.617Z,15.32
2017-08-11T00:07:39.230Z,15.34
2017-08-11T00:08:24.673Z,15.34
2017-08-11T00:09:24.670Z,15.34
2017-08-11T00:10:24.711Z,15.19
2017-08-11T00:11:24.415Z,15.23
2017-08-11T00:12:24.764Z,15.11
2017-08-11T00:13:24.764Z,15.09
2017-08-11T00:14:24.820Z,15.09
2017-08-11T00:15:24.828Z,14.95
2017-08-11T00:16:24.847Z,15.03
2017-08-11T00:17:24.850Z,14.89
2017-08-11T00:18:24.882Z,14.91
2017-08-11T00:19:24.920Z,14.83
2017-08-11T00:20:24.933Z,14.75
2017-08-11T00:21:24.658Z,14.78
2017-08-11T00:22:25.005Z,14.64
2017-08-11T00:23:39.605Z,14.8
2017-08-11T00:24:25.048Z,14.86
2017-08-11T00:25:25.079Z,14.8
2017-08-11T00:26:24.770Z,14.78
2017-08-11T00:27:25.102Z,14.78
2017-08-11T00:28:25.113Z,14.77
2017-08-11T00:29:25.153Z,14.78
2017-08-11T00:30:25.170Z,14.88
2017-08-11T00:31:25.206Z,14.73
2017-08-11T00:32:25.210Z,14.75
2017-08-11T00:33:25.249Z,14.73
2017-08-11T00:34:25.264Z,14.65
2017-08-11T00:35:24.972Z,14.68
2017-08-11T00:36:25.306Z,14.6
2017-08-11T00:37:25.335Z,14.73
2017-08-11T00:38:25.050Z,14.75
2017-08-11T00:39:39.968Z,14.8
2017-08-11T00:40:25.393Z,14.75
2017-08-11T00:41:25.121Z,14.78
2017-08-11T00:42:25.448Z,14.8
2017-08-11T00:43:25.163Z,14.81
2017-08-11T00:44:25.499Z,14.86
2017-08-11T00:45:40.115Z,14.86
2017-08-11T00:46:25.540Z,14.86
2017-08-11T00:47:25.251Z,14.84
2017-08-11T00:48:24.978Z,14.89
2017-08-11T00:49:24.991Z,14.8
2017-08-11T00:50:40.226Z,14.81
2017-08-11T00:51:25.329Z,14.78
2017-08-11T00:53:25.388Z,14.84
2017-08-11T00:55:40.347Z,14.78
2017-08-11T00:56:25.801Z,14.92
2017-08-11T00:57:25.798Z,14.94
2017-08-11T00:59:25.840Z,14.89
2017-08-11T01:01:40.469Z,14.92
2017-08-11T01:02:25.594Z,14.92
2017-08-11T01:03:25.914Z,14.91
2017-08-11T01:04:25.998Z,14.98
2017-08-11T01:05:25.978Z,14.94
2017-08-11T01:06:26.002Z,15.01
2017-08-11T01:07:26.017Z,15.03
2017-08-11T01:10:40.690Z,15.03
2017-08-11T01:11:26.118Z,15.06
2017-08-11T01:12:25.826Z,15.02
2017-08-11T01:13:25.846Z,15.1
2017-08-11T01:14:25.871Z,15.06
2017-08-11T01:15:26.190Z,15.09
2017-08-11T01:16:26.227Z,15.01
2017-08-11T01:17:25.945Z,15.03
2017-08-11T01:18:26.263Z,15.09
2017-08-11T01:20:26.324Z,15.16
2017-08-11T01:21:26.339Z,15.13
2017-08-11T01:22:26.047Z,15.17
2017-08-11T01:23:26.078Z,15.14
2017-08-11T01:24:26.418Z,15.2
2017-08-11T01:25:26.447Z,15.28
2017-08-11T01:26:26.465Z,15.17
2017-08-11T01:27:26.476Z,15.29
2017-08-11T01:28:26.505Z,15.31
2017-08-11T01:29:26.522Z,15.28
2017-08-11T01:30:26.547Z,15.27
2017-08-11T01:31:26.603Z,15.28
2017-08-11T01:32:26.592Z,15.31
2017-08-11T01:33:41.220Z,15.31
2017-08-11T01:34:26.634Z,15.28
2017-08-11T01:35:26.724Z,15.29
2017-08-11T01:36:26.702Z,15.29
2017-08-11T01:37:26.712Z,15.28
2017-08-11T01:38:26.727Z,15.38
2017-08-11T01:40:26.788Z,15.34
2017-08-11T01:41:26.806Z,15.32
2017-08-11T01:42:41.421Z,15.34
2017-08-11T01:43:26.833Z,15.27
2017-08-11T01:44:26.876Z,15.29
2017-08-11T01:45:26.901Z,15.38
2017-08-11T01:46:26.916Z,15.41
2017-08-11T01:47:26.951Z,15.39
2017-08-11T01:48:26.968Z,15.53
2017-08-11T01:49:26.965Z,15.43
2017-08-11T01:50:27.011Z,15.41
2017-08-11T01:51:27.034Z,15.38
2017-08-11T01:52:27.060Z,15.38
2017-08-11T01:53:27.081Z,15.46
2017-08-11T01:54:27.094Z,15.51
2017-08-11T01:55:27.127Z,15.43
2017-08-11T01:56:27.139Z,15.43
2017-08-11T01:57:27.173Z,15.44
2017-08-11T01:58:41.791Z,15.43
2017-08-11T01:59:27.204Z,15.36
2017-08-11T02:00:27.236Z,15.41
2017-08-11T02:01:27.251Z,15.43
2017-08-11T02:02:27.345Z,15.44
2017-08-11T02:03:27.295Z,15.5
2017-08-11T02:04:27.325Z,15.46
2017-08-11T02:05:27.347Z,15.53
2017-08-11T02:06:41.977Z,15.44
2017-08-11T02:07:27.094Z,15.54
2017-08-11T02:08:42.018Z,15.47
2017-08-11T02:09:27.128Z,15.47
2017-08-11T02:10:27.151Z,15.43
2017-08-11T02:11:27.492Z,15.5
2017-08-11T02:12:27.595Z,15.46
2017-08-11T02:13:27.519Z,15.46
2017-08-11T02:14:42.146Z,15.53
2017-08-11T02:15:42.189Z,15.57
2017-08-11T02:16:27.597Z,15.53
2017-08-11T02:17:27.632Z,15.57
2017-08-11T02:18:27.655Z,15.57
2017-08-11T02:19:27.679Z,15.57
2017-08-11T02:20:27.690Z,15.57
2017-08-11T02:21:27.708Z,15.69
2017-08-11T02:22:27.744Z,15.68
2017-08-11T02:23:27.764Z,15.69
2017-08-11T02:24:42.388Z,15.65
2017-08-11T02:25:27.807Z,15.69
2017-08-11T02:26:27.840Z,15.76
2017-08-11T02:27:27.854Z,15.68
2017-08-11T02:28:27.884Z,15.78
2017-08-11T02:29:27.904Z,15.78
2017-08-11T02:30:42.525Z,15.76
2017-08-11T02:31:27.955Z,15.82
2017-08-11T02:32:27.659Z,15.84
2017-08-11T02:34:28.019Z,15.83
2017-08-11T02:35:28.050Z,15.86
2017-08-11T02:36:28.057Z,16
2017-08-11T02:37:28.092Z,16.04
2017-08-11T02:38:28.110Z,16
2017-08-11T02:39:28.147Z,16.01
2017-08-11T02:40:28.189Z,15.97
2017-08-11T02:41:27.880Z,16.07
2017-08-11T02:42:28.205Z,16.07
2017-08-11T02:43:28.228Z,16.07
2017-08-11T02:44:28.239Z,16.12
2017-08-11T02:45:42.886Z,16.05
2017-08-11T02:46:28.294Z,16.11
2017-08-11T02:47:28.335Z,16.07
2017-08-11T02:48:28.343Z,16.11
2017-08-11T02:49:28.371Z,16.12
2017-08-11T02:50:28.383Z,16.12
2017-08-11T02:51:28.396Z,16.04
2017-08-11T02:52:28.445Z,16.09
2017-08-11T02:53:28.481Z,16.14
2017-08-11T02:54:28.497Z,16.11
2017-08-11T02:55:28.505Z,16.14
2017-08-11T02:56:28.541Z,16.07
2017-08-11T02:57:28.535Z,16.12
2017-08-11T02:58:28.581Z,16.14
2017-08-11T02:59:28.606Z,16.14
2017-08-11T03:00:28.636Z,16.25
2017-08-11T03:01:28.388Z,16.17
2017-08-11T03:02:28.661Z,16.17
2017-08-11T03:03:28.683Z,16.27
2017-08-11T03:05:28.745Z,16.31
2017-08-11T03:06:28.462Z,16.34
2017-08-11T03:07:28.785Z,16.33
2017-08-11T03:09:28.823Z,16.33
2017-08-11T03:10:28.859Z,16.49
2017-08-11T03:11:28.870Z,16.42
2017-08-11T03:12:28.900Z,16.39
2017-08-11T03:13:28.918Z,16.39
2017-08-11T03:14:28.928Z,16.45
2017-08-11T03:15:28.671Z,16.45
2017-08-11T03:16:28.987Z,16.38
2017-08-11T03:18:29.027Z,16.39
2017-08-11T03:19:28.755Z,16.5
2017-08-11T03:20:29.099Z,16.43
2017-08-11T03:21:29.113Z,16.57
2017-08-11T03:22:29.120Z,16.56
2017-08-11T03:23:29.161Z,16.53
2017-08-11T03:24:29.167Z,16.58
2017-08-11T03:25:29.205Z,16.57
2017-08-11T03:26:29.219Z,16.49
2017-08-11T03:27:29.253Z,16.61
2017-08-11T03:28:28.956Z,16.57
2017-08-11T03:29:29.300Z,16.56
2017-08-11T03:30:29.304Z,16.53
2017-08-11T03:31:29.344Z,16.61
2017-08-11T03:32:29.359Z,16.64
2017-08-11T03:33:43.667Z,16.57
2017-08-11T03:34:29.406Z,16.6
2017-08-11T03:35:29.130Z,16.56
2017-08-11T03:36:29.144Z,16.64
2017-08-11T03:37:29.181Z,16.67
2017-08-11T03:38:29.177Z,16.66
2017-08-11T03:39:29.528Z,16.75
2017-08-11T03:40:29.555Z,16.76
2017-08-11T03:41:29.272Z,16.76
2017-08-11T03:42:29.284Z,16.85
2017-08-11T03:43:29.308Z,16.85
2017-08-11T03:44:29.347Z,16.85
2017-08-11T03:45:29.677Z,16.83
2017-08-11T03:46:29.687Z,16.93
2017-08-11T03:47:29.700Z,16.93
2017-08-11T03:49:44.360Z,17
2017-08-11T03:50:44.390Z,16.96
2017-08-11T03:51:29.504Z,17.01
2017-08-11T03:52:29.520Z,16.98
2017-08-11T03:53:29.858Z,17.03
2017-08-11T03:54:29.861Z,17
2017-08-11T03:55:29.903Z,17.04
2017-08-11T03:56:29.919Z,16.98
2017-08-11T03:57:29.959Z,17.06
2017-08-11T03:58:29.971Z,17
2017-08-11T03:59:29.687Z,17.04
2017-08-11T04:01:29.736Z,17.06
2017-08-11T04:03:29.791Z,17.07
2017-08-11T04:04:30.106Z,17.11
2017-08-11T04:05:44.737Z,17.06
2017-08-11T04:06:30.191Z,17.15
2017-08-11T04:07:29.929Z,17.16
2017-08-11T04:08:30.214Z,17.19
2017-08-11T04:09:29.924Z,17.21
2017-08-11T04:10:30.259Z,17.15
2017-08-11T04:11:30.280Z,17.18
2017-08-11T04:12:30.310Z,17.04
2017-08-11T04:13:30.004Z,17.15
2017-08-11T04:14:44.946Z,17.19
2017-08-11T04:15:30.074Z,17.16
2017-08-11T04:16:30.412Z,17.15
2017-08-11T04:17:30.408Z,17.14
2017-08-11T04:18:30.139Z,17.16
2017-08-11T04:19:45.095Z,17.08
2017-08-11T04:20:45.097Z,17.18
2017-08-11T04:21:30.525Z,17.22
2017-08-11T04:22:30.226Z,17.18
2017-08-11T04:23:30.578Z,17.03
2017-08-11T04:24:30.573Z,17.14
2017-08-11T04:25:30.627Z,17.18
2017-08-11T04:26:30.633Z,17.12
2017-08-11T04:28:30.662Z,17.06
2017-08-11T04:29:30.715Z,17.14
2017-08-11T04:30:30.429Z,17.15
2017-08-11T04:31:30.453Z,17.23
2017-08-11T04:33:31.102Z,17.14
2017-08-11T04:34:30.507Z,17.12
2017-08-11T04:35:30.533Z,17.19
2017-08-11T04:36:30.257Z,17.21
2017-08-11T04:37:30.581Z,17.19
2017-08-11T04:38:30.612Z,17.22
2017-08-11T04:39:30.947Z,17.21
2017-08-11T04:41:30.976Z,17.12
2017-08-11T04:42:31.013Z,16.98
2017-08-11T04:43:31.055Z,17.08
2017-08-11T04:44:31.060Z,17.12
2017-08-11T04:45:31.092Z,17.01
2017-08-11T04:46:45.707Z,17.12
2017-08-11T04:47:31.144Z,17.15
2017-08-11T04:48:31.168Z,17.01
2017-08-11T04:49:30.865Z,17.06
2017-08-11T04:50:31.209Z,17.08
2017-08-11T04:52:45.849Z,17.06
2017-08-11T04:53:30.965Z,17.03
2017-08-11T04:54:31.289Z,17.08
2017-08-11T04:56:31.039Z,17.06
2017-08-11T04:57:31.374Z,16.94
2017-08-11T04:58:31.393Z,16.97
2017-08-11T04:59:31.417Z,17.07
2017-08-11T05:00:46.040Z,16.98
2017-08-11T05:01:31.491Z,17.03
2017-08-11T05:02:31.501Z,17
2017-08-11T05:03:46.108Z,16.96
2017-08-11T05:04:31.230Z,16.98
2017-08-11T05:05:31.551Z,17.01
2017-08-11T05:06:31.595Z,16.91
2017-08-11T05:07:31.598Z,16.93
2017-08-11T05:08:46.227Z,17.06
2017-08-11T05:09:31.695Z,17
2017-08-11T05:10:31.679Z,17.03
2017-08-11T05:11:31.701Z,17.11
2017-08-11T05:12:31.734Z,17.01
2017-08-11T05:13:31.755Z,17.11
2017-08-11T05:14:32.066Z,17.11
2017-08-11T05:15:31.795Z,17.11
2017-08-11T05:16:31.799Z,17.15
2017-08-11T05:17:31.848Z,17.12
2017-08-11T05:18:31.557Z,16.96
2017-08-11T05:20:31.898Z,16.93
2017-08-11T05:21:46.534Z,16.97
2017-08-11T05:22:31.954Z,16.91
2017-08-11T05:23:31.989Z,17.04
2017-08-11T05:24:46.610Z,16.94
2017-08-11T05:25:32.045Z,17.01
2017-08-11T05:26:32.056Z,17.07
2017-08-11T05:27:32.075Z,17.01
2017-08-11T05:28:46.704Z,16.98
2017-08-11T05:29:46.714Z,16.94
2017-08-11T05:30:32.153Z,16.94
2017-08-11T05:31:32.177Z,16.91
2017-08-11T05:32:32.202Z,16.85
2017-08-11T05:33:32.215Z,16.91
2017-08-11T05:34:31.945Z,16.94
2017-08-11T05:35:32.248Z,16.97
2017-08-11T05:36:31.983Z,17
2017-08-11T05:37:32.323Z,16.97
2017-08-11T05:38:32.332Z,17
2017-08-11T05:39:32.040Z,17
2017-08-11T05:40:46.674Z,16.93
2017-08-11T05:41:32.422Z,16.98
2017-08-11T05:42:32.422Z,16.91
2017-08-11T05:43:47.064Z,16.91
2017-08-11T05:44:32.502Z,17.04
2017-08-11T05:45:32.519Z,17.08
2017-08-11T05:46:32.529Z,17.04
2017-08-11T05:47:31.943Z,17.11
2017-08-11T05:48:32.578Z,17.14
2017-08-11T05:49:32.295Z,17.14
2017-08-11T05:50:32.639Z,17.08
2017-08-11T05:51:32.662Z,17.15
2017-08-11T05:52:32.664Z,17.21
2017-08-11T05:53:32.395Z,17.22
2017-08-11T05:54:32.403Z,17.21
2017-08-11T05:55:47.341Z,17.19
2017-08-11T05:56:32.762Z,17.19
2017-08-11T05:57:32.788Z,17.21
2017-08-11T05:58:32.816Z,17.21
2017-08-11T05:59:32.844Z,17.22
2017-08-11T06:00:32.882Z,17.26
2017-08-11T06:01:32.568Z,17.25
2017-08-11T06:02:32.914Z,17.31
2017-08-11T06:03:32.931Z,17.26
2017-08-11T06:04:47.558Z,17.26
2017-08-11T06:05:32.670Z,17.41
2017-08-11T06:06:33.013Z,17.41
2017-08-11T06:07:33.032Z,17.38
2017-08-11T06:08:33.044Z,17.44
2017-08-11T06:10:33.096Z,17.52
2017-08-11T06:11:32.829Z,17.54
2017-08-11T06:12:33.140Z,17.59
2017-08-11T06:13:33.173Z,17.54
2017-08-11T06:14:33.200Z,17.54
2017-08-11T06:15:33.242Z,17.68
2017-08-11T06:16:47.847Z,17.7
2017-08-11T06:17:33.278Z,17.66
2017-08-11T06:18:33.283Z,17.62
2017-08-11T06:19:33.325Z,17.71
2017-08-11T06:20:33.330Z,17.66
2017-08-11T06:21:33.368Z,17.72
2017-08-11T06:22:33.373Z,17.81
2017-08-11T06:23:33.415Z,17.78
2017-08-11T06:24:33.117Z,17.82
2017-08-11T06:26:33.471Z,17.89
2017-08-11T06:27:48.156Z,17.84
2017-08-11T06:28:48.139Z,17.92
2017-08-11T06:31:33.621Z,17.99
2017-08-11T06:32:33.638Z,17.92
2017-08-11T06:33:33.336Z,17.92
2017-08-11T06:34:33.353Z,17.93
2017-08-11T06:35:33.705Z,18.02
2017-08-11T06:36:48.324Z,18.1
2017-08-11T06:37:33.763Z,18.12
2017-08-11T06:38:33.776Z,18.15
2017-08-11T06:39:33.806Z,18.14
2017-08-11T06:40:33.806Z,18.27
2017-08-11T06:43:48.183Z,18.23
2017-08-11T06:44:33.911Z,18.27
2017-08-11T06:45:33.930Z,18.29
2017-08-11T06:46:33.974Z,18.26
2017-08-11T06:47:33.687Z,18.26
2017-08-11T06:48:34.016Z,18.32
2017-08-11T06:49:48.638Z,18.32
2017-08-11T06:50:34.079Z,18.26
2017-08-11T06:51:33.770Z,18.3
2017-08-11T06:52:34.117Z,18.27
2017-08-11T06:53:34.120Z,18.35
2017-08-11T06:54:34.175Z,18.32
2017-08-11T06:55:48.796Z,18.35
2017-08-11T06:56:34.202Z,18.44
2017-08-11T06:57:34.237Z,18.44
2017-08-11T06:58:34.236Z,18.48
2017-08-11T06:59:48.883Z,18.5
2017-08-11T07:00:34.295Z,18.57
2017-08-11T07:01:48.945Z,18.6
2017-08-11T07:02:34.359Z,18.58
2017-08-11T07:03:34.377Z,18.6
2017-08-11T07:04:34.402Z,18.55
2017-08-11T07:05:34.437Z,18.63
2017-08-11T07:06:34.451Z,18.62
2017-08-11T07:07:34.486Z,18.67
2017-08-11T07:08:34.186Z,18.69
2017-08-11T07:09:34.529Z,18.7
2017-08-11T07:10:34.532Z,18.62
2017-08-11T07:11:34.582Z,18.69
2017-08-11T07:12:34.610Z,18.73
2017-08-11T07:13:34.631Z,18.72
2017-08-11T07:14:34.639Z,18.73
2017-08-11T07:15:49.273Z,18.72
2017-08-11T07:16:34.713Z,18.82
2017-08-11T07:17:34.726Z,18.82
2017-08-11T07:18:34.762Z,18.7
2017-08-11T07:19:34.775Z,18.73
2017-08-11T07:20:34.792Z,18.87
2017-08-11T07:21:34.509Z,18.95
2017-08-11T07:22:34.846Z,18.98
2017-08-11T07:23:49.474Z,19.04
2017-08-11T07:24:49.491Z,19.14
2017-08-11T07:25:34.916Z,19.19
2017-08-11T07:26:34.951Z,19.31
2017-08-11T07:27:34.977Z,19.41
2017-08-11T07:29:35.023Z,19.56
2017-08-11T07:30:49.640Z,19.59
2017-08-11T07:31:35.066Z,19.61
2017-08-11T07:33:35.105Z,19.59
2017-08-11T07:34:34.832Z,19.68
2017-08-11T07:35:49.767Z,19.59
2017-08-11T07:36:35.192Z,19.62
2017-08-11T07:37:35.216Z,19.71
2017-08-11T07:38:34.936Z,19.68
2017-08-11T07:39:34.958Z,19.77
2017-08-11T07:41:34.995Z,19.56
2017-08-11T07:42:35.033Z,19.63
2017-08-11T07:43:35.372Z,19.59
2017-08-11T07:44:35.073Z,19.69
2017-08-11T07:46:35.430Z,19.73
2017-08-11T07:47:35.464Z,19.8
2017-08-11T07:48:35.173Z,19.74
2017-08-11T07:49:35.215Z,19.84
2017-08-11T07:50:35.534Z,19.78
2017-08-11T07:51:35.579Z,19.71
2017-08-11T07:52:35.582Z,19.78
2017-08-11T07:53:35.605Z,19.74
2017-08-11T07:54:35.325Z,19.78
2017-08-11T07:55:35.351Z,19.92
2017-08-11T07:56:50.286Z,20.01
2017-08-11T07:57:35.709Z,20.06
2017-08-11T07:58:35.427Z,20.02
2017-08-11T07:59:35.753Z,20.13
2017-08-11T08:00:35.782Z,20.13
2017-08-11T08:01:35.800Z,20.06
2017-08-11T08:03:35.865Z,20.01
2017-08-11T08:04:35.888Z,20.06
2017-08-11T08:05:35.290Z,20.08
2017-08-11T08:06:50.540Z,20.01
2017-08-11T08:07:50.564Z,19.98
2017-08-11T08:08:35.978Z,20.05
2017-08-11T08:09:36.000Z,20.05
2017-08-11T08:10:36.032Z,20.08
2017-08-11T08:11:36.066Z,20.06
2017-08-11T08:12:36.073Z,20.16
2017-08-11T08:13:36.123Z,20.1
2017-08-11T08:14:36.129Z,20.24
2017-08-11T08:15:36.159Z,20.23
2017-08-11T08:17:36.198Z,20.35
2017-08-11T08:18:50.837Z,20.33
2017-08-11T08:19:36.257Z,20.29
2017-08-11T08:20:35.976Z,20.24
2017-08-11T08:21:35.985Z,20.21
2017-08-11T08:22:36.336Z,20.2
2017-08-11T08:23:36.043Z,20.26
2017-08-11T08:24:36.389Z,20.26
2017-08-11T08:25:36.420Z,20.35
2017-08-11T08:26:36.439Z,20.26
2017-08-11T08:27:36.456Z,20.29
2017-08-11T08:28:36.473Z,20.28
2017-08-11T08:29:36.518Z,20.21
2017-08-11T08:30:36.526Z,20.23
2017-08-11T08:31:36.573Z,20.21
2017-08-11T08:32:36.276Z,20.32
2017-08-11T08:33:36.609Z,20.28
2017-08-11T08:34:51.221Z,20.18
2017-08-11T08:35:36.349Z,20.21
2017-08-11T08:36:36.672Z,20.17
2017-08-11T08:37:36.711Z,20.18
2017-08-11T08:38:36.417Z,20.28
2017-08-11T08:39:36.450Z,20.32
2017-08-11T08:40:36.465Z,20.23
2017-08-11T08:41:36.504Z,20.23
2017-08-11T08:42:36.526Z,20.11
2017-08-11T08:43:36.865Z,20.18
2017-08-11T08:44:36.561Z,20.17
2017-08-11T08:45:36.919Z,20.11
2017-08-11T08:46:36.936Z,20.21
2017-08-11T08:49:37.022Z,20.17
2017-08-11T08:50:51.645Z,20.16
2017-08-11T08:51:37.041Z,20.26
2017-08-11T08:52:36.776Z,20.11
2017-08-11T08:53:37.116Z,20.23
2017-08-11T08:54:51.735Z,20.18
2017-08-11T08:55:37.160Z,20.32
2017-08-11T08:57:37.194Z,20.41
2017-08-11T08:58:37.242Z,20.33
2017-08-11T08:59:37.254Z,20.52
2017-08-11T09:00:37.289Z,20.52
2017-08-11T09:01:37.306Z,20.62
2017-08-11T09:02:37.331Z,20.61
2017-08-11T09:03:37.350Z,20.58
2017-08-11T09:04:37.078Z,20.66
2017-08-11T09:05:52.010Z,20.48
2017-08-11T09:06:37.440Z,20.42
2017-08-11T09:07:51.744Z,20.33
2017-08-11T09:08:37.485Z,20.23
2017-08-11T09:09:37.515Z,20.28
2017-08-11T09:10:37.539Z,20.21
2017-08-11T09:11:37.565Z,20.24
2017-08-11T09:12:37.587Z,20.24
2017-08-11T09:13:37.611Z,20.16
2017-08-11T09:14:37.316Z,20.24
2017-08-11T09:15:37.667Z,20.24
2017-08-11T09:16:37.687Z,20.24
2017-08-11T09:17:37.407Z,20.2
2017-08-11T09:18:37.738Z,20.21
2017-08-11T09:19:37.764Z,20.18
2017-08-11T09:20:37.787Z,20.28
2017-08-11T09:21:37.799Z,20.21
2017-08-11T09:22:37.831Z,20.21
2017-08-11T09:23:37.861Z,20.16
2017-08-11T09:24:37.886Z,20.14
2017-08-11T09:25:37.907Z,20.14
2017-08-11T09:26:37.927Z,20.17
2017-08-11T09:27:37.653Z,20.2
2017-08-11T09:28:37.985Z,20.16
2017-08-11T09:29:38.027Z,20.11
2017-08-11T09:30:37.720Z,20.14
2017-08-11T09:31:52.355Z,20.1
2017-08-11T09:32:38.096Z,20.05
2017-08-11T09:33:38.118Z,20.11
2017-08-11T09:34:38.151Z,20.02
2017-08-11T09:35:38.161Z,20.05
2017-08-11T09:36:38.194Z,20.02
2017-08-11T09:37:52.801Z,19.98
2017-08-11T09:39:38.257Z,20.03
2017-08-11T09:40:37.989Z,20.06
2017-08-11T09:41:38.322Z,20.01
2017-08-11T09:42:38.329Z,20.05
2017-08-11T09:43:38.356Z,20.03
2017-08-11T09:44:38.064Z,20.21
2017-08-11T09:45:38.410Z,20.24
2017-08-11T09:46:53.048Z,20.16
2017-08-11T09:47:38.156Z,20.13
2017-08-11T09:48:38.479Z,20.1
2017-08-11T09:49:38.513Z,20.2
2017-08-11T09:50:38.546Z,20.21
2017-08-11T09:51:38.572Z,20.18
2017-08-11T09:52:38.583Z,20.11
2017-08-11T09:53:53.211Z,20.14
2017-08-11T09:54:38.631Z,20.13
2017-08-11T09:55:38.669Z,20.21
2017-08-11T09:56:38.680Z,20.13
2017-08-11T09:57:38.716Z,20.14
2017-08-11T09:58:38.747Z,20.13
2017-08-11T09:59:38.752Z,20.08
2017-08-11T10:00:38.781Z,20.1
2017-08-11T10:01:38.811Z,20.08
2017-08-11T10:02:38.836Z,19.96
2017-08-11T10:03:38.868Z,20.02
2017-08-11T10:04:38.907Z,19.95
2017-08-11T10:05:38.591Z,19.95
2017-08-11T10:07:38.962Z,19.96
2017-08-11T10:08:38.985Z,20.02
2017-08-11T10:09:53.611Z,20.01
2017-08-11T10:10:39.051Z,20.01
2017-08-11T10:11:39.094Z,20.05
2017-08-11T10:13:38.808Z,20.08
2017-08-11T10:14:39.121Z,20.03
2017-08-11T10:16:39.188Z,19.99
2017-08-11T10:17:53.812Z,19.91
2017-08-11T10:18:39.245Z,19.87
2017-08-11T10:19:39.263Z,19.8
2017-08-11T10:20:38.961Z,19.92
2017-08-11T10:21:53.603Z,19.92
2017-08-11T10:22:39.341Z,19.84
2017-08-11T10:23:39.054Z,19.88
2017-08-11T10:24:39.394Z,19.96
2017-08-11T10:25:54.008Z,20.06
2017-08-11T10:26:39.430Z,20.05
2017-08-11T10:27:39.462Z,19.98
2017-08-11T10:28:39.502Z,19.98
2017-08-11T10:29:39.519Z,20.05
2017-08-11T10:30:39.531Z,20.01
2017-08-11T10:31:54.162Z,20.21
2017-08-11T10:32:39.572Z,20.13
2017-08-11T10:33:39.602Z,20.24
2017-08-11T10:34:39.634Z,20.29
2017-08-11T10:35:39.659Z,20.38
2017-08-11T10:36:39.691Z,20.36
2017-08-11T10:38:39.726Z,20.55
2017-08-11T10:39:39.774Z,20.72
2017-08-11T10:41:54.410Z,20.69
2017-08-11T10:42:39.844Z,20.73
2017-08-11T10:43:39.851Z,20.74
2017-08-11T10:44:39.895Z,20.76
2017-08-11T10:45:39.918Z,20.79
2017-08-11T10:46:39.677Z,20.95
2017-08-11T10:47:39.651Z,20.97
2017-08-11T10:48:54.587Z,20.94
2017-08-11T10:49:40.019Z,20.95
2017-08-11T10:50:40.047Z,21.07
2017-08-11T10:51:40.077Z,21.19
2017-08-11T10:52:40.103Z,21.24
2017-08-11T10:53:40.105Z,21.25
2017-08-11T10:54:39.833Z,21.44
2017-08-11T10:56:40.208Z,21.69
2017-08-11T10:57:40.220Z,21.71
2017-08-11T10:58:40.489Z,21.79
2017-08-11T11:00:39.967Z,21.98
2017-08-11T11:01:40.331Z,22
2017-08-11T11:03:40.061Z,22.06
2017-08-11T11:04:40.406Z,22.24
2017-08-11T11:05:40.431Z,22.4
2017-08-11T11:06:40.438Z,22.46
2017-08-11T11:07:40.476Z,22.6
2017-08-11T11:09:40.210Z,22.68
2017-08-11T11:10:54.850Z,22.75
2017-08-11T11:11:40.276Z,22.8
2017-08-11T11:12:55.205Z,22.91
2017-08-11T11:13:40.323Z,22.88
2017-08-11T11:14:40.671Z,22.75
2017-08-11T11:15:40.714Z,22.94
2017-08-11T11:16:40.093Z,22.97
2017-08-11T11:17:40.779Z,22.77
2017-08-11T11:19:40.802Z,23.35
2017-08-11T11:21:40.855Z,23.88
2017-08-11T11:22:40.860Z,23.93
2017-08-11T11:23:40.901Z,23.69
2017-08-11T11:24:40.905Z,23.54
2017-08-11T11:25:40.942Z,23.35
2017-08-11T11:26:40.968Z,23.25
2017-08-11T11:27:41.001Z,23
2017-08-11T11:28:55.624Z,22.75
2017-08-11T11:29:40.751Z,22.52
2017-08-11T11:30:40.778Z,22.54
2017-08-11T11:31:40.796Z,22.7
2017-08-11T11:32:41.143Z,23.02
2017-08-11T11:33:40.839Z,23.01
2017-08-11T11:35:41.225Z,23.04
2017-08-11T11:36:40.948Z,23.04
2017-08-11T11:37:41.268Z,23.31
2017-08-11T11:38:40.978Z,23.54
2017-08-11T11:39:41.333Z,23.63
2017-08-11T11:40:41.341Z,23.6
2017-08-11T11:41:41.372Z,23.58
2017-08-11T11:42:41.402Z,23.69
2017-08-11T11:43:41.435Z,23.65
2017-08-11T11:44:56.058Z,23.31
2017-08-11T11:45:41.488Z,23.25
2017-08-11T11:46:41.196Z,23.02
2017-08-11T11:47:56.138Z,22.97
2017-08-11T11:49:41.592Z,22.95
2017-08-11T11:50:41.294Z,23.15
2017-08-11T11:51:41.665Z,23.33
2017-08-11T11:52:41.365Z,23.54
2017-08-11T11:53:41.686Z,23.75
2017-08-11T11:54:41.731Z,23.73
2017-08-11T11:55:41.731Z,23.65
2017-08-11T11:56:41.778Z,23.53
2017-08-11T11:57:41.488Z,23.46
2017-08-11T11:58:41.871Z,23.25
2017-08-11T12:01:41.921Z,23.46
2017-08-11T12:02:41.927Z,23.46
2017-08-11T12:03:41.975Z,23.33
2017-08-11T12:04:41.995Z,23.13
2017-08-11T12:05:42.022Z,23.04
2017-08-11T12:06:42.054Z,23.13
2017-08-11T12:07:42.063Z,23.25
2017-08-11T12:09:42.104Z,23.33
2017-08-11T12:10:42.144Z,23.25
2017-08-11T12:11:42.184Z,22.98
2017-08-11T12:12:42.196Z,23
2017-08-11T12:13:41.913Z,22.8
2017-08-11T12:14:42.253Z,22.72
2017-08-11T12:15:56.884Z,22.75
2017-08-11T12:16:42.315Z,22.91
2017-08-11T12:17:42.369Z,22.75
2017-08-11T12:18:42.376Z,22.72
2017-08-11T12:19:42.058Z,22.47
2017-08-11T12:20:42.408Z,22.35
2017-08-11T12:21:57.030Z,22.22
2017-08-11T12:22:42.471Z,22.09
2017-08-11T12:23:42.492Z,22.03
2017-08-11T12:24:42.527Z,21.98
2017-08-11T12:25:42.550Z,21.8
2017-08-11T12:26:57.172Z,21.86
2017-08-11T12:27:42.283Z,21.96
2017-08-11T12:29:42.650Z,21.88
2017-08-11T12:30:42.673Z,22
2017-08-11T12:31:42.712Z,22.1
2017-08-11T12:32:42.724Z,22.03
2017-08-11T12:33:42.762Z,22.09
2017-08-11T12:34:42.773Z,22.07
2017-08-11T12:35:42.815Z,22.09
2017-08-11T12:36:42.835Z,22.1
2017-08-11T12:37:42.847Z,22.17
2017-08-11T12:38:42.901Z,22.25
2017-08-11T12:39:42.921Z,22.2
2017-08-11T12:40:42.940Z,22.09
2017-08-11T12:41:42.948Z,22.14
2017-08-11T12:42:43.002Z,22.09
2017-08-11T12:43:43.017Z,22.1
2017-08-11T12:44:43.049Z,22.1
2017-08-11T12:45:43.057Z,22.15
2017-08-11T12:46:42.766Z,22.05
2017-08-11T12:47:57.415Z,22.17
2017-08-11T12:48:42.833Z,22.09
2017-08-11T12:49:43.181Z,22.07
2017-08-11T12:50:43.265Z,22.22
2017-08-11T12:51:43.227Z,22.22
2017-08-11T12:52:42.933Z,22.22
2017-08-11T12:53:42.966Z,22.24
2017-08-11T12:54:43.309Z,22.24
2017-08-11T12:55:43.017Z,22.17
2017-08-11T12:57:43.069Z,22.18
2017-08-11T12:58:58.001Z,22.25
2017-08-11T12:59:43.118Z,22.21
2017-08-11T13:00:43.442Z,22.18
2017-08-11T13:01:43.471Z,22.31
2017-08-11T13:02:43.522Z,22.22
2017-08-11T13:03:58.124Z,22.18
2017-08-11T13:04:43.556Z,22.25
2017-08-11T13:05:43.577Z,22.3
2017-08-11T13:06:43.625Z,22.46
2017-08-11T13:07:43.327Z,22.49
2017-08-11T13:08:43.358Z,22.77
2017-08-11T13:09:58.290Z,23.05
2017-08-11T13:10:43.401Z,23.04
2017-08-11T13:11:43.460Z,23.17
2017-08-11T13:13:43.605Z,23.35
2017-08-11T13:14:43.812Z,23.38
2017-08-11T13:15:43.920Z,23.17
2017-08-11T13:16:43.857Z,23.19
2017-08-11T13:17:43.607Z,23.04
2017-08-11T13:18:43.911Z,23.04
2017-08-11T13:19:58.551Z,23.01
2017-08-11T13:20:43.992Z,22.97
2017-08-11T13:21:43.983Z,23.05
2017-08-11T13:22:44.026Z,23.2
2017-08-11T13:23:43.456Z,23.33
2017-08-11T13:24:44.085Z,23.54
2017-08-11T13:26:44.143Z,23.88
2017-08-11T13:27:44.165Z,24.1
2017-08-11T13:28:44.200Z,24.32
2017-08-11T13:29:44.217Z,24.35
2017-08-11T13:30:44.543Z,24.13
2017-08-11T13:31:44.261Z,24.1
2017-08-11T13:33:44.325Z,24.09
2017-08-11T13:34:44.339Z,24.16
2017-08-11T13:35:58.976Z,24.12
2017-08-11T13:36:44.088Z,24.3
2017-08-11T13:38:44.457Z,24.37
2017-08-11T13:39:44.482Z,24.34
2017-08-11T13:40:44.203Z,24.27
2017-08-11T13:41:44.522Z,24.06
2017-08-11T13:42:44.585Z,23.88
2017-08-11T13:43:59.186Z,23.84
2017-08-11T13:44:44.632Z,23.55
2017-08-11T13:45:44.647Z,23.36
2017-08-11T13:46:44.674Z,23.36
2017-08-11T13:47:44.687Z,23.36
2017-08-11T13:48:44.404Z,23.47
2017-08-11T13:49:44.757Z,23.48
2017-08-11T13:50:59.374Z,23.57
2017-08-11T13:51:44.823Z,23.54
2017-08-11T13:52:44.512Z,23.48
2017-08-11T13:53:59.460Z,23.53
2017-08-11T13:54:44.872Z,23.7